createdAt,value
2023-02-28T00:01:40.666Z,102453.34
2023-02-28T00:04:10.273Z,102448.13
2023-02-28T00:06:37.994Z,102445.50
2023-02-28T00:09:05.722Z,102447.28
2023-02-28T00:11:33.445Z,102441.19
2023-02-28T00:14:01.180Z,102441.19
2023-02-28T00:16:30.344Z,102447.28
2023-02-28T00:18:58.152Z,102446.41
2023-02-28T00:21:25.925Z,102453.34
2023-02-28T00:23:53.688Z,102449.88
2023-02-28T00:26:22.018Z,102459.44
2023-02-28T00:28:49.962Z,102456.88
2023-02-28T00:31:17.672Z,102442.06
2023-02-28T00:33:47.089Z,102454.25
2023-02-28T00:36:14.804Z,102452.50
2023-02-28T00:38:43.027Z,102449.91
2023-02-28T00:41:11.249Z,102449.00
2023-02-28T00:43:40.619Z,102452.50
2023-02-28T00:46:09.108Z,102446.41
2023-02-28T00:48:37.199Z,102447.28
2023-02-28T00:51:07.157Z,102449.91
2023-02-28T00:53:34.974Z,102450.78
2023-02-28T00:56:02.941Z,102448.13
2023-02-28T00:58:31.336Z,102448.09
2023-02-28T01:00:59.117Z,102446.31
2023-02-28T01:03:26.837Z,102443.72
2023-02-28T01:05:55.011Z,102445.47
2023-02-28T01:08:24.171Z,102444.59
2023-02-28T01:10:52.160Z,102435.00
2023-02-28T01:13:20.142Z,102430.69
2023-02-28T01:15:51.865Z,102436.84
2023-02-28T01:18:19.660Z,102438.59
2023-02-28T01:20:47.322Z,102436.84
2023-02-28T01:23:15.053Z,102448.16
2023-02-28T01:25:44.139Z,102441.22
2023-02-28T01:28:11.879Z,102433.34
2023-02-28T01:30:39.627Z,102438.59
2023-02-28T01:33:07.312Z,102435.97
2023-02-28T01:35:35.519Z,102439.47
2023-02-28T01:38:19.356Z,102438.56
2023-02-28T01:40:50.164Z,102438.53
2023-02-28T01:43:22.621Z,102434.22
2023-02-28T01:45:50.409Z,102432.50
2023-02-28T01:48:18.142Z,102433.34
2023-02-28T01:50:47.511Z,102428.13
2023-02-28T01:53:16.948Z,102422.06
2023-02-28T01:55:49.314Z,102434.25
2023-02-28T01:58:18.369Z,102423.78
2023-02-28T02:00:46.141Z,102433.34
2023-02-28T02:03:17.346Z,102434.22
2023-02-28T02:05:48.435Z,102431.63
2023-02-28T02:08:19.777Z,102435.97
2023-02-28T02:10:50.330Z,102433.38
2023-02-28T02:13:47.721Z,102439.47
2023-02-28T02:16:25.891Z,102430.75
2023-02-28T02:18:55.666Z,102432.50
2023-02-28T02:21:53.754Z,102442.06
2023-02-28T02:24:50.769Z,102444.63
2023-02-28T02:27:23.089Z,102439.41
2023-02-28T02:30:11.061Z,102439.34
2023-02-28T02:33:12.321Z,102444.59
2023-02-28T02:35:43.665Z,102436.75
2023-02-28T02:38:16.199Z,102443.69
2023-02-28T02:40:45.859Z,102446.31
2023-02-28T02:43:17.283Z,102444.56
2023-02-28T02:45:48.664Z,102441.09
2023-02-28T02:48:19.434Z,102442.84
2023-02-28T02:50:51.693Z,102434.13
2023-02-28T02:53:21.477Z,102441.06
2023-02-28T02:55:55.429Z,102443.66
2023-02-28T02:58:27.339Z,102437.59
2023-02-28T03:00:57.067Z,102445.41
2023-02-28T03:03:29.786Z,102428.03
2023-02-28T03:05:59.995Z,102436.72
2023-02-28T03:08:28.511Z,102435.03
2023-02-28T03:10:59.653Z,102430.66
2023-02-28T03:13:45.655Z,102423.69
2023-02-28T03:16:34.923Z,102431.53
2023-02-28T03:19:27.623Z,102430.66
2023-02-28T03:22:18.676Z,102430.66
2023-02-28T03:24:52.781Z,102421.94
2023-02-28T03:27:25.925Z,102422.81
2023-02-28T03:29:59.527Z,102421.97
2023-02-28T03:32:29.919Z,102427.28
2023-02-28T03:35:01.244Z,102423.78
2023-02-28T03:37:31.191Z,102430.78
2023-02-28T03:40:02.877Z,102426.38
2023-02-28T03:42:32.136Z,102422.03
2023-02-28T03:45:01.818Z,102427.22
2023-02-28T03:47:31.588Z,102417.66
2023-02-28T03:50:01.423Z,102428.09
2023-02-28T03:52:34.392Z,102430.69
2023-02-28T03:55:07.455Z,102423.72
2023-02-28T03:57:39.872Z,102429.81
2023-02-28T04:00:13.240Z,102423.78
2023-02-28T04:02:40.996Z,102420.31
2023-02-28T04:05:09.475Z,102424.63
2023-02-28T04:07:38.539Z,102424.63
2023-02-28T04:10:07.383Z,102424.63
2023-02-28T04:12:35.047Z,102415.91
2023-02-28T04:15:02.763Z,102417.63
2023-02-28T04:17:30.431Z,102415.03
2023-02-28T04:19:58.551Z,102423.75
2023-02-28T04:22:27.835Z,102425.50
2023-02-28T04:24:56.926Z,102434.19
2023-02-28T04:27:24.607Z,102428.13
2023-02-28T04:29:52.326Z,102434.22
2023-02-28T04:32:20.118Z,102429.88
2023-02-28T04:34:47.803Z,102416.78
2023-02-28T04:37:15.538Z,102422.88
2023-02-28T04:39:43.726Z,102424.66
2023-02-28T04:42:13.355Z,102408.13
2023-02-28T04:44:41.098Z,102422.03
2023-02-28T04:47:08.844Z,102420.28
2023-02-28T04:49:36.586Z,102419.41
2023-02-28T04:52:04.554Z,102432.44
2023-02-28T04:54:32.225Z,102426.41
2023-02-28T04:56:59.946Z,102415.09
2023-02-28T04:59:29.077Z,102425.56
2023-02-28T05:01:56.791Z,102414.22
2023-02-28T05:04:24.544Z,102404.66
2023-02-28T05:06:52.240Z,102409.88
2023-02-28T05:09:19.952Z,102410.69
2023-02-28T05:11:47.596Z,102414.16
2023-02-28T05:14:16.097Z,102417.69
2023-02-28T05:16:45.196Z,102415.09
2023-02-28T05:19:12.865Z,102428.97
2023-02-28T05:21:42.174Z,102421.06
2023-02-28T05:24:12.912Z,102418.44
2023-02-28T05:26:42.876Z,102422.78
2023-02-28T05:29:11.085Z,102421.91
2023-02-28T05:31:38.848Z,102421.03
2023-02-28T05:34:08.225Z,102414.94
2023-02-28T05:36:35.959Z,102412.28
2023-02-28T05:39:04.256Z,102413.13
2023-02-28T05:41:32.248Z,102423.56
2023-02-28T05:44:00.685Z,102428.75
2023-02-28T05:46:28.409Z,102432.19
2023-02-28T05:48:56.861Z,102425.25
2023-02-28T05:51:25.859Z,102422.66
2023-02-28T05:53:53.632Z,102434.84
2023-02-28T05:56:21.268Z,102444.41
2023-02-28T05:58:48.907Z,102439.22
2023-02-28T06:01:25.227Z,102437.50
2023-02-28T06:03:53.128Z,102440.09
2023-02-28T06:06:20.887Z,102444.47
2023-02-28T06:08:50.024Z,102444.50
2023-02-28T06:11:17.788Z,102438.41
2023-02-28T06:13:45.717Z,102443.56
2023-02-28T06:16:13.666Z,102446.22
2023-02-28T06:18:41.484Z,102443.63
2023-02-28T06:21:09.927Z,102437.56
2023-02-28T06:23:37.853Z,102448.84
2023-02-28T06:26:07.285Z,102454.06
2023-02-28T06:28:34.940Z,102458.38
2023-02-28T06:31:08.747Z,102459.97
2023-02-28T06:33:36.915Z,102460.94
2023-02-28T06:36:05.172Z,102470.50
2023-02-28T06:38:32.852Z,102474.00
2023-02-28T06:41:01.209Z,102478.38
2023-02-28T06:43:33.298Z,102478.38
2023-02-28T06:46:02.399Z,102481.84
2023-02-28T06:48:30.267Z,102487.09
2023-02-28T06:51:04.763Z,102481.06
2023-02-28T06:53:32.549Z,102487.22
2023-02-28T06:56:00.201Z,102496.81
2023-02-28T06:58:27.937Z,102495.06
2023-02-28T07:00:57.155Z,102502.88
2023-02-28T07:03:25.052Z,102495.06
2023-02-28T07:05:52.827Z,102499.41
2023-02-28T07:08:20.492Z,102497.69
2023-02-28T07:10:48.161Z,102503.78
2023-02-28T07:13:15.818Z,102510.75
2023-02-28T07:15:44.322Z,102510.75
2023-02-28T07:18:13.415Z,102514.28
2023-02-28T07:20:41.125Z,102509.06
2023-02-28T07:23:08.761Z,102512.53
2023-02-28T07:25:36.496Z,102518.63
2023-02-28T07:28:04.245Z,102521.25
2023-02-28T07:30:31.913Z,102519.50
2023-02-28T07:32:59.622Z,102517.72
2023-02-28T07:35:28.693Z,102519.47
2023-02-28T07:37:56.358Z,102512.47
2023-02-28T07:40:24.078Z,102524.63
2023-02-28T07:42:51.795Z,102529.84
2023-02-28T07:45:20.475Z,102528.03
2023-02-28T07:47:48.223Z,102521.03
2023-02-28T07:50:17.445Z,102521.91
2023-02-28T07:52:46.513Z,102517.47
2023-02-28T07:55:14.666Z,102517.41
2023-02-28T07:57:42.655Z,102536.41
2023-02-28T08:00:13.649Z,102529.47
2023-02-28T08:02:41.552Z,102513.06
2023-02-28T08:05:10.160Z,102528.56
2023-02-28T08:07:37.841Z,102538.94
2023-02-28T08:10:08.173Z,102533.66
2023-02-28T08:12:35.909Z,102531.88
2023-02-28T08:15:03.572Z,102530.09
2023-02-28T08:17:32.385Z,102540.25
2023-02-28T08:20:00.935Z,102534.31
2023-02-28T08:22:28.596Z,102527.38
2023-02-28T08:24:56.253Z,102524.94
2023-02-28T08:27:25.406Z,102520.69
2023-02-28T08:29:53.070Z,102516.53
2023-02-28T08:32:29.258Z,102519.97
2023-02-28T08:34:58.283Z,102523.56
2023-02-28T08:37:26.253Z,102524.47
2023-02-28T08:39:56.245Z,102519.19
2023-02-28T08:42:25.948Z,102513.19
2023-02-28T08:44:53.620Z,102518.41
2023-02-28T08:47:21.713Z,102515.78
2023-02-28T08:49:49.406Z,102516.69
2023-02-28T08:52:17.094Z,102518.41
2023-02-28T08:54:44.708Z,102525.38
2023-02-28T08:57:12.389Z,102521.06
2023-02-28T08:59:41.637Z,102525.41
2023-02-28T09:02:10.815Z,102529.75
2023-02-28T09:04:38.472Z,102534.06
2023-02-28T09:07:06.126Z,102530.53
2023-02-28T09:09:33.867Z,102526.16
2023-02-28T09:12:01.607Z,102527.94
2023-02-28T09:14:29.447Z,102531.34
2023-02-28T09:16:58.520Z,102538.38
2023-02-28T09:19:26.208Z,102522.69
2023-02-28T09:21:53.825Z,102532.19
2023-02-28T09:24:21.608Z,102525.28
2023-02-28T09:27:03.823Z,102521.84
2023-02-28T09:29:32.445Z,102514.81
2023-02-28T09:32:01.976Z,102523.47
2023-02-28T09:34:31.937Z,102524.25
2023-02-28T09:36:59.874Z,102511.25
2023-02-28T09:39:29.484Z,102521.59
2023-02-28T09:41:58.819Z,102509.63
2023-02-28T09:44:31.126Z,102516.47
2023-02-28T09:47:02.596Z,102513.75
2023-02-28T09:49:36.875Z,102514.69
2023-02-28T09:52:10.018Z,102513.75
2023-02-28T09:54:38.664Z,102523.34
2023-02-28T09:57:10.842Z,102512.94
2023-02-28T09:59:47.868Z,102522.44
2023-02-28T10:02:23.555Z,102522.41
2023-02-28T10:04:56.155Z,102510.16
2023-02-28T10:07:36.189Z,102511.69
2023-02-28T10:10:06.918Z,102515.28
2023-02-28T10:12:35.324Z,102522.22
2023-02-28T10:15:03.729Z,102523.72
2023-02-28T10:17:49.332Z,102516.22
2023-02-28T10:20:30.746Z,102529.97
2023-02-28T10:23:01.016Z,102521.91
2023-02-28T10:25:30.758Z,102518.44
2023-02-28T10:28:03.243Z,102520.81
2023-02-28T10:30:30.957Z,102515.94
2023-02-28T10:33:00.041Z,102516.06
2023-02-28T10:35:28.729Z,102520.22
2023-02-28T10:37:57.874Z,102517.47
2023-02-28T10:40:33.355Z,102513.19
2023-02-28T10:43:02.935Z,102514.94
2023-02-28T10:45:32.827Z,102507.50
2023-02-28T10:48:05.326Z,102510.19
2023-02-28T10:50:38.974Z,102519.59
2023-02-28T10:53:36.034Z,102507.56
2023-02-28T10:56:18.500Z,102505.19
2023-02-28T10:58:55.730Z,102514.94
2023-02-28T11:01:25.452Z,102518.84
2023-02-28T11:03:55.047Z,102506.75
2023-02-28T11:06:24.266Z,102511.19
2023-02-28T11:08:54.151Z,102518.78
2023-02-28T11:11:24.015Z,102510.00
2023-02-28T11:13:54.639Z,102477.56
2023-02-28T11:16:22.984Z,102501.56
2023-02-28T11:18:52.375Z,102494.56
2023-02-28T11:21:24.391Z,102494.28
2023-02-28T11:23:53.915Z,102496.53
2023-02-28T11:26:39.892Z,102491.44
2023-02-28T11:29:23.534Z,102489.13
2023-02-28T11:32:14.360Z,102479.81
2023-02-28T11:34:43.372Z,102474.47
2023-02-28T11:37:15.915Z,102458.25
2023-02-28T11:39:43.899Z,102478.22
2023-02-28T11:42:33.383Z,102474.47
2023-02-28T11:45:12.020Z,102471.78
2023-02-28T11:47:44.829Z,102478.25
2023-02-28T11:50:23.354Z,102467.13
2023-02-28T11:52:54.616Z,102471.13
2023-02-28T11:55:26.779Z,102483.94
2023-02-28T11:58:19.054Z,102474.91
2023-02-28T12:00:59.885Z,102468.63
2023-02-28T12:03:36.043Z,102477.13
2023-02-28T12:06:12.079Z,102466.50
2023-02-28T12:08:53.649Z,102462.25
2023-02-28T12:11:30.443Z,102467.94
2023-02-28T12:14:15.558Z,102464.09
2023-02-28T12:16:57.504Z,102449.94
2023-02-28T12:19:27.465Z,102456.97
2023-02-28T12:22:23.372Z,102448.78
2023-02-28T12:27:48.442Z,102436.59
2023-02-28T12:30:19.815Z,102440.63
2023-02-28T12:32:49.661Z,102444.00
2023-02-28T12:35:21.791Z,102427.53
2023-02-28T12:37:52.330Z,102435.09
2023-02-28T12:40:23.391Z,102428.50
2023-02-28T12:42:55.116Z,102425.81
2023-02-28T12:45:24.582Z,102417.97
2023-02-28T12:47:57.549Z,102407.97
2023-02-28T12:50:26.424Z,102416.69
2023-02-28T12:52:58.276Z,102409.84
2023-02-28T12:55:32.036Z,102399.47
2023-02-28T12:58:09.572Z,102405.00
2023-02-28T13:00:39.026Z,102408.13
2023-02-28T13:03:37.000Z,102390.56
2023-02-28T13:06:17.378Z,102397.25
2023-02-28T13:09:11.125Z,102385.34
2023-02-28T13:11:45.799Z,102385.50
2023-02-28T13:14:37.388Z,102382.16
2023-02-28T13:17:13.193Z,102384.69
2023-02-28T13:19:43.418Z,102383.94
2023-02-28T13:22:19.659Z,102367.50
2023-02-28T13:24:49.720Z,102362.47
2023-02-28T13:27:40.305Z,102368.13
2023-02-28T13:30:44.948Z,102369.28
2023-02-28T13:33:31.134Z,102368.69
2023-02-28T13:36:14.619Z,102365.78
2023-02-28T13:38:43.532Z,102352.44
2023-02-28T13:41:57.122Z,102352.09
2023-02-28T13:44:27.669Z,102369.66
2023-02-28T13:47:24.783Z,102372.88
2023-02-28T13:49:54.879Z,102364.88
2023-02-28T13:52:24.829Z,102371.63
2023-02-28T13:55:23.686Z,102362.16
2023-02-28T13:58:05.261Z,102363.28
2023-02-28T14:00:42.407Z,102365.41
2023-02-28T14:03:28.555Z,102362.16
2023-02-28T14:06:19.211Z,102357.09
2023-02-28T14:08:54.580Z,102376.38
2023-02-28T14:11:33.661Z,102372.00
2023-02-28T14:14:02.020Z,102351.53
2023-02-28T14:16:40.138Z,102355.97
2023-02-28T14:19:13.635Z,102364.22
2023-02-28T14:21:50.655Z,102360.88
2023-02-28T14:24:50.996Z,102350.59
2023-02-28T14:27:36.811Z,102353.59
2023-02-28T14:30:45.933Z,102359.41
2023-02-28T14:33:25.010Z,102359.19
2023-02-28T14:36:03.038Z,102347.31
2023-02-28T14:38:34.073Z,102355.59
2023-02-28T14:41:05.632Z,102362.25
2023-02-28T14:43:33.326Z,102348.16
2023-02-28T14:46:03.066Z,102360.16
2023-02-28T14:48:30.751Z,102339.59
2023-02-28T14:50:59.710Z,102343.00
2023-02-28T14:53:28.543Z,102358.19
2023-02-28T14:55:57.783Z,102345.44
2023-02-28T14:58:27.571Z,102345.03
2023-02-28T15:00:57.347Z,102341.44
2023-02-28T15:03:29.722Z,102329.94
2023-02-28T15:05:59.628Z,102340.78
2023-02-28T15:08:30.111Z,102333.88
2023-02-28T15:11:01.508Z,102339.63
2023-02-28T15:13:37.705Z,102327.22
2023-02-28T15:16:07.212Z,102324.78
2023-02-28T15:18:42.647Z,102338.00
2023-02-28T15:21:15.266Z,102327.34
2023-02-28T15:23:45.944Z,102334.25
2023-02-28T15:26:16.643Z,102341.75
2023-02-28T15:28:44.608Z,102337.53
2023-02-28T15:31:23.720Z,102341.94
2023-02-28T15:33:56.520Z,102340.25
2023-02-28T15:36:28.759Z,102327.31
2023-02-28T15:39:01.575Z,102338.38
2023-02-28T15:41:40.011Z,102337.78
2023-02-28T15:44:30.197Z,102347.09
2023-02-28T15:47:02.367Z,102335.88
2023-02-28T15:49:31.983Z,102343.56
2023-02-28T15:52:01.783Z,102354.75
2023-02-28T15:54:31.525Z,102347.03
2023-02-28T15:57:05.527Z,102349.00
2023-02-28T15:59:33.398Z,102353.06
2023-02-28T16:02:18.882Z,102353.00
2023-02-28T16:05:14.654Z,102342.75
2023-02-28T16:07:43.986Z,102344.63
2023-02-28T16:10:15.137Z,102341.22
2023-02-28T16:12:44.756Z,102342.97
2023-02-28T16:15:21.069Z,102338.66
2023-02-28T16:17:49.134Z,102342.00
2023-02-28T16:20:17.843Z,102337.00
2023-02-28T16:22:46.563Z,102337.06
2023-02-28T16:25:15.070Z,102343.34
2023-02-28T16:27:46.145Z,102338.88
2023-02-28T16:30:21.553Z,102343.88
2023-02-28T16:32:49.716Z,102333.72
2023-02-28T16:35:18.822Z,102336.53
2023-02-28T16:37:46.968Z,102345.25
2023-02-28T16:40:18.967Z,102344.28
2023-02-28T16:42:49.177Z,102347.09
2023-02-28T16:45:22.191Z,102348.81
2023-02-28T16:47:49.970Z,102365.34
2023-02-28T16:50:19.874Z,102362.84
2023-02-28T16:52:47.691Z,102360.19
2023-02-28T16:55:15.539Z,102364.53
2023-02-28T16:57:43.925Z,102355.97
2023-02-28T17:00:16.298Z,102363.72
2023-02-28T17:02:44.175Z,102363.75
2023-02-28T17:05:14.043Z,102359.41
2023-02-28T17:07:41.915Z,102360.38
2023-02-28T17:10:16.052Z,102357.94
2023-02-28T17:12:43.705Z,102370.94
2023-02-28T17:15:12.776Z,102369.19
2023-02-28T17:17:42.744Z,102368.34
2023-02-28T17:20:14.521Z,102368.50
2023-02-28T17:22:42.399Z,102368.50
2023-02-28T17:25:12.108Z,102370.25
2023-02-28T17:27:39.919Z,102376.38
2023-02-28T17:30:16.394Z,102374.78
2023-02-28T17:32:45.577Z,102378.25
2023-02-28T17:35:13.375Z,102387.78
2023-02-28T17:37:41.184Z,102376.63
2023-02-28T17:40:16.777Z,102381.91
2023-02-28T17:42:44.680Z,102388.09
2023-02-28T17:45:13.348Z,102395.06
2023-02-28T17:47:41.388Z,102392.47
2023-02-28T17:50:13.837Z,102388.16
2023-02-28T17:52:41.549Z,102387.25
2023-02-28T17:55:11.435Z,102392.50
2023-02-28T17:57:39.228Z,102398.56
2023-02-28T18:00:08.479Z,102391.63
2023-02-28T18:02:36.360Z,102396.84
2023-02-28T18:05:05.434Z,102392.47
2023-02-28T18:07:34.567Z,102390.75
2023-02-28T18:10:04.169Z,102393.34
2023-02-28T18:12:32.288Z,102395.88
2023-02-28T18:15:01.783Z,102399.34
2023-02-28T18:17:29.527Z,102405.41
2023-02-28T18:19:57.221Z,102403.63
2023-02-28T18:22:24.871Z,102405.28
2023-02-28T18:24:53.844Z,102408.78
2023-02-28T18:27:21.535Z,102398.38
2023-02-28T18:29:53.027Z,102407.91
2023-02-28T18:32:20.989Z,102400.09
2023-02-28T18:34:48.840Z,102402.69
2023-02-28T18:37:18.526Z,102407.81
2023-02-28T18:39:46.383Z,102406.91
2023-02-28T18:42:15.419Z,102406.00
2023-02-28T18:44:43.135Z,102405.09
2023-02-28T18:47:11.048Z,102409.38
2023-02-28T18:49:38.739Z,102412.84
2023-02-28T18:52:06.513Z,102409.41
2023-02-28T18:54:34.235Z,102407.63
2023-02-28T18:57:01.913Z,102410.03
2023-02-28T18:59:31.198Z,102415.19
2023-02-28T19:01:59.344Z,102414.44
2023-02-28T19:04:27.092Z,102409.19
2023-02-28T19:06:54.785Z,102417.94
2023-02-28T19:09:22.793Z,102405.81
2023-02-28T19:11:50.443Z,102407.50
2023-02-28T19:14:18.176Z,102404.91
2023-02-28T19:16:47.605Z,102404.91
2023-02-28T19:19:15.421Z,102410.91
2023-02-28T19:21:43.052Z,102409.13
2023-02-28T19:24:10.704Z,102407.38
2023-02-28T19:26:38.398Z,102410.81
2023-02-28T19:29:06.889Z,102414.25
2023-02-28T19:31:34.839Z,102406.41
2023-02-28T19:34:03.967Z,102412.34
2023-02-28T19:36:31.790Z,102414.03
2023-02-28T19:38:59.511Z,102411.34
2023-02-28T19:41:27.178Z,102422.59
2023-02-28T19:43:55.250Z,102423.41
2023-02-28T19:46:23.165Z,102422.59
2023-02-28T19:48:54.331Z,102424.28
2023-02-28T19:51:24.074Z,102426.00
2023-02-28T19:53:51.993Z,102416.31
2023-02-28T19:56:19.766Z,102417.16
2023-02-28T19:58:47.674Z,102417.03
2023-02-28T20:01:17.805Z,102416.06
2023-02-28T20:03:48.925Z,102419.44
2023-02-28T20:06:16.649Z,102424.56
2023-02-28T20:08:45.637Z,102415.66
2023-02-28T20:11:15.077Z,102425.22
2023-02-28T20:13:42.872Z,102432.28
2023-02-28T20:16:12.220Z,102434.13
2023-02-28T20:18:40.635Z,102435.94
2023-02-28T20:21:09.842Z,102436.81
2023-02-28T20:23:38.822Z,102441.91
2023-02-28T20:26:08.356Z,102433.94
2023-02-28T20:28:36.080Z,102437.25
2023-02-28T20:31:03.846Z,102440.59
2023-02-28T20:33:31.554Z,102443.88
2023-02-28T20:36:00.335Z,102449.03
2023-02-28T20:38:28.156Z,102443.81
2023-02-28T20:40:56.292Z,102455.28
2023-02-28T20:43:25.416Z,102452.72
2023-02-28T20:45:53.556Z,102459.72
2023-02-28T20:48:22.075Z,102461.34
2023-02-28T20:50:50.768Z,102450.88
2023-02-28T20:53:18.928Z,102446.38
2023-02-28T20:55:55.434Z,102453.19
2023-02-28T20:58:24.944Z,102447.03
2023-02-28T21:00:53.022Z,102451.53
2023-02-28T21:03:20.697Z,102457.69
2023-02-28T21:05:48.445Z,102447.47
2023-02-28T21:08:16.164Z,102452.84
2023-02-28T21:10:43.884Z,102445.91
2023-02-28T21:13:11.607Z,102451.03
2023-02-28T21:15:40.730Z,102448.28
2023-02-28T21:18:08.838Z,102438.56
2023-02-28T21:20:36.557Z,102437.44
2023-02-28T21:23:04.615Z,102447.81
2023-02-28T21:25:33.941Z,102445.19
2023-02-28T21:28:01.619Z,102444.41
2023-02-28T21:30:29.339Z,102444.50
2023-02-28T21:32:58.669Z,102442.75
2023-02-28T21:35:26.477Z,102444.44
2023-02-28T21:37:54.143Z,102433.91
2023-02-28T21:40:21.874Z,102446.81
2023-02-28T21:42:49.534Z,102448.38
2023-02-28T21:45:17.297Z,102451.84
2023-02-28T21:47:45.050Z,102447.47
2023-02-28T21:50:14.755Z,102440.38
2023-02-28T21:52:42.767Z,102447.47
2023-02-28T21:55:11.108Z,102448.41
2023-02-28T21:57:38.839Z,102441.16
2023-02-28T22:00:08.764Z,102446.47
2023-02-28T22:02:38.219Z,102449.94
2023-02-28T22:05:06.470Z,102436.94
2023-02-28T22:07:35.476Z,102449.13
2023-02-28T22:10:03.154Z,102448.22
2023-02-28T22:12:31.156Z,102448.03
2023-02-28T22:14:58.819Z,102446.13
2023-02-28T22:17:26.459Z,102456.53
2023-02-28T22:19:54.143Z,102444.59
2023-02-28T22:22:21.844Z,102452.09
2023-02-28T22:24:50.946Z,102460.19
2023-02-28T22:27:18.682Z,102462.72
2023-02-28T22:29:47.445Z,102461.94
2023-02-28T22:32:15.789Z,102467.28
2023-02-28T22:34:43.514Z,102460.25
2023-02-28T22:37:11.177Z,102458.50
2023-02-28T22:39:38.821Z,102465.63
2023-02-28T22:42:07.952Z,102455.19
2023-02-28T22:44:35.682Z,102454.22
2023-02-28T22:47:03.534Z,102454.91
2023-02-28T22:49:31.217Z,102455.00
2023-02-28T22:51:58.876Z,102450.59
2023-02-28T22:54:26.669Z,102461.63
2023-02-28T22:56:54.318Z,102471.94
2023-02-28T22:59:23.361Z,102468.66
2023-02-28T23:01:50.995Z,102466.03
2023-02-28T23:04:19.586Z,102462.47
2023-02-28T23:06:47.377Z,102462.25
2023-02-28T23:09:18.354Z,102465.50
2023-02-28T23:11:48.124Z,102469.53
2023-02-28T23:14:17.505Z,102477.75
2023-02-28T23:16:48.298Z,102478.63
2023-02-28T23:19:17.904Z,102480.34
2023-02-28T23:21:46.101Z,102478.44
2023-02-28T23:24:15.764Z,102481.72
2023-02-28T23:26:45.314Z,102483.56
2023-02-28T23:29:13.640Z,102487.13
2023-02-28T23:31:41.526Z,102474.91
2023-02-28T23:34:11.052Z,102477.47
2023-02-28T23:36:39.209Z,102485.13
2023-02-28T23:39:07.282Z,102482.47
2023-02-28T23:41:34.953Z,102484.13
2023-02-28T23:44:02.709Z,102484.78
2023-02-28T23:46:30.579Z,102479.50
2023-02-28T23:48:59.779Z,102483.94
2023-02-28T23:51:28.802Z,102480.53
2023-02-28T23:53:56.482Z,102482.94
2023-02-28T23:56:25.366Z,102483.16
2023-02-28T23:58:55.689Z,102481.47
